Time;durP1;ratioP1;P1;durP2;ratioP2;P2;SDS_P1;SDS_P2;PMS_P1;PMS_P2;Temp;Humidity;BMP_temperature;BMP_pressure;BME280_temperature;BME280_humidity;BME280_pressure;Samples;Min_cycle;Max_cycle;Signal;HPM_P1;HPM_P2
2022/01/02 00:01:47;;;;;;;5.60;5.20;;;;;;;12.12;77.89;100184.25;4994013;28;20183;-65
2022/01/02 00:04:17;;;;;;;5.53;5.13;;;;;;;12.12;77.83;100188.75;4995105;28;20197;-65
2022/01/02 00:06:48;;;;;;;5.90;5.50;;;;;;;12.12;77.90;100194.09;4994225;28;20196;-65
2022/01/02 00:09:28;;;;;;;5.90;5.50;;;;;;;12.07;77.94;100189.31;4994944;28;20224;-65
2022/01/02 00:12:11;;;;;;;5.70;5.30;;;;;;;12.10;77.62;100198.75;4994442;28;20615;-65
2022/01/02 00:14:44;;;;;;;5.70;5.30;;;;;;;12.06;77.80;100202.81;4993661;28;20693;-65
2022/01/02 00:17:10;;;;;;;5.50;5.10;;;;;;;12.01;78.07;100194.56;4994038;28;20192;-65
2022/01/02 00:19:40;;;;;;;6.03;5.33;;;;;;;11.98;78.09;100194.94;4994252;28;20197;-64
2022/01/02 00:22:14;;;;;;;5.77;5.37;;;;;;;11.95;78.24;100195.31;4993404;28;20206;-65
2022/01/02 00:24:43;;;;;;;5.33;5.03;;;;;;;11.93;78.29;100198.19;4993456;28;20189;-65
2022/01/02 00:27:11;;;;;;;5.33;4.93;;;;;;;11.94;78.08;100214.97;4994396;28;20278;-65
2022/01/02 00:29:39;;;;;;;5.47;5.17;;;;;;;11.96;78.15;100203.09;4993995;28;20225;-65
2022/01/02 00:32:07;;;;;;;5.33;5.03;;;;;;;11.99;78.05;100207.22;4994041;28;20207;-64
2022/01/02 00:34:36;;;;;;;5.73;5.30;;;;;;;11.95;78.17;100219.28;4993610;28;20215;-65
2022/01/02 00:37:03;;;;;;;5.47;5.10;;;;;;;11.89;78.49;100218.19;4993706;28;20201;-65
2022/01/02 00:39:30;;;;;;;5.00;4.70;;;;;;;11.96;77.91;100229.72;4992546;28;20201;-65
2022/01/02 00:42:04;;;;;;;4.93;4.73;;;;;;;11.93;78.15;100222.16;4993378;28;20275;-65
2022/01/02 00:44:39;;;;;;;5.10;4.80;;;;;;;11.99;77.87;100226.72;4993183;28;20192;-65
2022/01/02 00:47:12;;;;;;;4.77;4.50;;;;;;;12.00;77.57;100224.88;4993382;28;20192;-65
2022/01/02 00:49:41;;;;;;;5.30;5.00;;;;;;;12.00;77.47;100224.88;4994276;28;20286;-65
2022/01/02 00:52:16;;;;;;;5.13;4.83;;;;;;;11.95;77.58;100222.75;4993830;28;20596;-65
2022/01/02 00:54:45;;;;;;;5.00;4.80;;;;;;;11.94;77.29;100225.63;4992681;28;20612;-65
2022/01/02 00:57:18;;;;;;;5.53;5.10;;;;;;;11.90;77.69;100227.84;4993174;28;20278;-65
2022/01/02 00:59:49;;;;;;;4.93;4.63;;;;;;;11.90;77.66;100224.34;4993035;28;20193;-65
2022/01/02 01:02:19;;;;;;;5.60;5.20;;;;;;;11.87;77.76;100228.19;4993016;28;20189;-65
2022/01/02 01:04:48;;;;;;;5.80;5.30;;;;;;;11.96;77.43;100229.72;4993264;28;20199;-65
2022/01/02 01:07:15;;;;;;;5.13;4.83;;;;;;;11.95;77.33;100237.91;4992847;28;20673;-65
2022/01/02 01:09:42;;;;;;;5.20;4.90;;;;;;;11.97;77.04;100241.22;4992719;28;20315;-64
2022/01/02 01:12:11;;;;;;;5.10;4.80;;;;;;;11.96;77.09;100228.94;4993384;28;20262;-64
2022/01/02 01:14:40;;;;;;;4.57;4.17;;;;;;;11.94;77.19;100230.94;4993881;28;20286;-64
2022/01/02 01:17:07;;;;;;;4.93;4.73;;;;;;;11.91;77.30;100231.31;4993345;28;20336;-64
2022/01/02 01:19:33;;;;;;;5.03;4.73;;;;;;;11.91;77.08;100229.47;4992958;28;20260;-65
2022/01/02 01:22:00;;;;;;;5.27;4.87;;;;;;;11.85;77.34;100234.72;4993078;28;20251;-65
2022/01/02 01:24:29;;;;;;;4.80;4.53;;;;;;;11.83;77.61;100236.72;4992660;28;20193;-66
2022/01/02 01:26:57;;;;;;;4.70;4.50;;;;;;;11.93;77.18;100229.28;4993545;28;20278;-65
2022/01/02 01:29:23;;;;;;;5.50;5.20;;;;;;;11.83;77.31;100234.91;4992325;28;20220;-66
2022/01/02 01:31:51;;;;;;;5.23;4.93;;;;;;;11.83;77.50;100229.59;4992601;28;20622;-66
2022/01/02 01:34:18;;;;;;;5.23;4.93;;;;;;;11.82;77.43;100233.25;4992746;28;20259;-65
2022/01/02 01:36:45;;;;;;;5.03;4.73;;;;;;;11.82;77.39;100227.94;4992597;28;20727;-65
2022/01/02 01:39:11;;;;;;;4.90;4.60;;;;;;;11.81;77.49;100226.28;4993327;28;20277;-65
2022/01/02 01:41:39;;;;;;;4.70;4.40;;;;;;;11.76;77.57;100223.34;4992442;28;20262;-65
2022/01/02 01:44:27;;;;;;;4.90;4.60;;;;;;;11.77;77.86;100227.69;4992704;28;20598;-65
2022/01/02 01:46:56;;;;;;;4.87;4.50;;;;;;;11.74;77.64;100225.38;4992524;28;20188;-64
2022/01/02 01:49:27;;;;;;;5.13;4.83;;;;;;;11.75;77.99;100224.34;4992488;28;20225;-64
2022/01/02 01:51:55;;;;;;;5.70;5.07;;;;;;;11.74;77.76;100220.06;4994793;28;20650;-65
2022/01/02 01:54:22;;;;;;;5.33;5.03;;;;;;;11.66;78.17;100222.81;4996396;28;20376;-64
2022/01/02 01:56:50;;;;;;;5.17;4.87;;;;;;;11.67;78.09;100219.13;4996504;28;20220;-64
2022/01/02 01:59:17;;;;;;;4.60;4.30;;;;;;;11.71;78.11;100222.28;4996574;28;20209;-64
2022/01/02 02:01:44;;;;;;;5.03;4.73;;;;;;;11.63;78.15;100217.06;4996094;28;20738;-64
2022/01/02 02:04:12;;;;;;;4.90;4.60;;;;;;;11.63;78.02;100212.53;4996359;28;20255;-64
2022/01/02 02:06:39;;;;;;;4.90;4.60;;;;;;;11.61;78.09;100217.22;4996352;28;20192;-64
2022/01/02 02:09:07;;;;;;;5.10;4.80;;;;;;;11.67;78.24;100218.34;4996253;28;20227;-64
2022/01/02 02:11:36;;;;;;;4.90;4.60;;;;;;;11.64;78.04;100216.84;4996342;28;20266;-64
2022/01/02 02:14:04;;;;;;;5.37;5.07;;;;;;;11.61;78.35;100213.72;4996328;28;20200;-65
2022/01/02 02:16:32;;;;;;;4.93;4.63;;;;;;;11.65;77.96;100210.53;4996540;28;20246;-64
2022/01/02 02:18:59;;;;;;;5.10;4.80;;;;;;;11.61;78.08;100211.91;4996284;28;20199;-65
2022/01/02 02:21:33;;;;;;;4.50;4.30;;;;;;;11.58;78.13;100209.56;4996164;28;20197;-64
2022/01/02 02:24:00;;;;;;;5.20;4.90;;;;;;;11.59;78.24;100216.53;4995665;28;20251;-65
2022/01/02 02:26:27;;;;;;;4.97;4.67;;;;;;;11.58;78.17;100211.41;4996162;28;20196;-64
2022/01/02 02:28:54;;;;;;;4.97;4.67;;;;;;;11.57;78.11;100207.09;4995660;28;20279;-64
2022/01/02 02:31:20;;;;;;;5.17;4.87;;;;;;;11.56;78.34;100216.91;4996123;28;20195;-65
2022/01/02 02:33:47;;;;;;;4.87;4.47;;;;;;;11.52;78.38;100215.66;4995762;28;20251;-65
2022/01/02 02:36:14;;;;;;;5.27;4.97;;;;;;;11.58;78.52;100220.22;4995642;28;20223;-65
2022/01/02 02:38:42;;;;;;;5.70;5.37;;;;;;;11.59;78.40;100221.06;4995879;28;20258;-65
2022/01/02 02:41:09;;;;;;;4.97;4.67;;;;;;;11.50;78.49;100220.31;4995530;28;20643;-64
2022/01/02 02:43:43;;;;;;;5.13;4.83;;;;;;;11.44;78.83;100222.88;4995497;28;20684;-65
2022/01/02 02:49:02;;;;;;;5.53;5.23;;;;;;;11.42;79.17;100222.22;4995405;28;20232;-65
2022/01/02 02:51:37;;;;;;;5.60;5.20;;;;;;;11.33;79.27;100226.84;4995368;28;20318;-65
2022/01/02 02:54:06;;;;;;;5.97;5.50;;;;;;;11.27;79.72;100222.22;4995382;28;20627;-65
2022/01/02 02:56:43;;;;;;;6.03;5.63;;;;;;;11.24;80.20;100225.28;4995557;28;20209;-66
2022/01/02 02:59:10;;;;;;;6.13;5.73;;;;;;;11.21;80.27;100222.97;4995481;28;20200;-66
2022/01/02 03:01:38;;;;;;;6.30;5.90;;;;;;;11.22;80.58;100216.63;4995507;28;20200;-65
2022/01/02 03:04:05;;;;;;;6.20;5.80;;;;;;;11.21;80.64;100222.13;4994091;28;20200;-65
2022/01/02 03:06:32;;;;;;;6.23;5.73;;;;;;;11.12;80.93;100217.91;4995235;28;20270;-65
2022/01/02 03:09:06;;;;;;;5.47;5.17;;;;;;;11.14;80.53;100216.72;4995238;28;20219;-64
2022/01/02 03:11:35;;;;;;;6.23;5.83;;;;;;;11.21;80.56;100217.66;4995031;28;20677;-64
2022/01/02 03:14:02;;;;;;;5.87;5.57;;;;;;;11.03;81.15;100210.00;4995011;28;20196;-64
2022/01/02 03:16:29;;;;;;;6.10;5.60;;;;;;;11.06;80.86;100219.47;4996058;28;20196;-64
2022/01/02 03:18:56;;;;;;;5.80;5.50;;;;;;;11.06;81.09;100219.47;4995202;28;20237;-64
2022/01/02 03:21:23;;;;;;;5.70;5.40;;;;;;;11.07;81.14;100229.09;4995120;28;20200;-64
2022/01/02 03:23:50;;;;;;;5.47;5.17;;;;;;;10.99;81.39;100230.00;4995036;28;20192;-64
2022/01/02 03:26:18;;;;;;;5.40;5.03;;;;;;;10.99;81.24;100234.50;4995891;28;20193;-65
2022/01/02 03:28:46;;;;;;;5.67;5.37;;;;;;;11.00;81.45;100236.16;4994910;28;20256;-64
2022/01/02 03:31:12;;;;;;;5.30;5.10;;;;;;;11.06;80.93;100240.72;4994652;28;20246;-64
2022/01/02 03:33:40;;;;;;;6.77;6.27;;;;;;;11.03;81.33;100251.75;4994627;28;20660;-64
2022/01/02 03:36:07;;;;;;;7.03;6.53;;;;;;;11.06;80.96;100256.69;4994899;28;20259;-64
2022/01/02 03:38:33;;;;;;;6.50;6.10;;;;;;;10.99;81.46;100251.25;4995335;28;20245;-66
2022/01/02 03:41:00;;;;;;;5.80;5.50;;;;;;;10.98;81.36;100254.94;4994448;28;20262;-66
2022/01/02 03:43:27;;;;;;;5.87;5.57;;;;;;;10.99;81.35;100258.44;4995200;28;20227;-66
2022/01/02 03:45:55;;;;;;;6.20;5.80;;;;;;;10.98;81.68;100254.94;4994352;28;20219;-66
2022/01/02 03:48:22;;;;;;;5.77;5.47;;;;;;;10.98;81.83;100255.94;4994351;28;20196;-66
2022/01/02 03:50:49;;;;;;;5.33;5.03;;;;;;;11.00;81.54;100252.09;4994016;28;20793;-66
2022/01/02 03:53:15;;;;;;;5.57;5.23;;;;;;;11.05;81.55;100260.34;4994875;28;20192;-66
2022/01/02 03:55:42;;;;;;;6.60;6.10;;;;;;;11.03;81.74;100247.22;4994528;28;20247;-66
2022/01/02 03:58:09;;;;;;;6.33;5.90;;;;;;;11.05;81.55;100249.72;4994376;28;20200;-66
2022/01/02 04:00:36;;;;;;;5.93;5.57;;;;;;;11.04;81.31;100245.41;4994203;28;20259;-66
2022/01/02 04:03:04;;;;;;;5.77;5.47;;;;;;;11.12;81.50;100250.66;4994762;28;20205;-65
2022/01/02 04:05:30;;;;;;;6.03;5.63;;;;;;;11.19;80.89;100256.06;4994546;28;20277;-66
2022/01/02 04:07:57;;;;;;;6.07;5.77;;;;;;;11.18;81.36;100262.41;4994809;28;20198;-66
2022/01/02 04:10:24;;;;;;;6.43;6.10;;;;;;;11.16;81.23;100251.94;4993871;28;20224;-66
2022/01/02 04:12:51;;;;;;;5.80;5.50;;;;;;;11.23;81.32;100268.81;4994672;28;20250;-66
2022/01/02 04:15:17;;;;;;;6.30;6.00;;;;;;;11.28;81.20;100269.13;4993447;28;20195;-65
2022/01/02 04:17:44;;;;;;;6.93;6.43;;;;;;;11.27;81.34;100264.78;4993997;28;20250;-65
2022/01/02 04:20:14;;;;;;;6.80;6.33;;;;;;;11.34;81.58;100270.19;4994087;28;20200;-65
2022/01/02 04:22:41;;;;;;;9.57;8.77;;;;;;;11.39;81.44;100268.66;4993891;28;20653;-65
2022/01/02 04:25:10;;;;;;;8.87;8.17;;;;;;;11.43;81.40;100269.94;4993626;28;20558;-65
2022/01/02 04:27:37;;;;;;;8.73;8.03;;;;;;;11.51;81.16;100267.19;4993848;28;20266;-65
2022/01/02 04:30:06;;;;;;;9.00;8.30;;;;;;;11.56;81.07;100270.13;4994263;28;20279;-65
2022/01/02 04:32:32;;;;;;;8.37;7.77;;;;;;;11.63;80.68;100271.06;4993379;28;20197;-65
2022/01/02 04:34:59;;;;;;;8.27;7.57;;;;;;;11.64;80.68;100274.56;4994029;28;20246;-65
2022/01/02 04:37:27;;;;;;;7.53;7.03;;;;;;;11.66;80.84;100280.53;4993699;28;20197;-65
2022/01/02 04:39:54;;;;;;;9.13;8.27;;;;;;;11.65;80.68;100287.69;4993622;28;20205;-65
2022/01/02 04:42:22;;;;;;;9.07;8.30;;;;;;;11.70;80.35;100287.97;4993264;28;20257;-65
2022/01/02 04:44:48;;;;;;;8.77;8.17;;;;;;;11.74;80.17;100294.56;4993661;28;20258;-65
2022/01/02 04:47:15;;;;;;;8.27;7.47;;;;;;;11.81;80.18;100284.00;4993201;28;20739;-65
2022/01/02 04:49:42;;;;;;;8.40;7.70;;;;;;;11.88;79.88;100284.94;4993393;28;20261;-64
2022/01/02 04:52:08;;;;;;;8.33;7.53;;;;;;;11.85;79.95;100291.47;4993426;28;20237;-64
2022/01/02 04:54:36;;;;;;;7.80;7.17;;;;;;;11.88;79.66;100296.41;4994239;28;20202;-65
2022/01/02 04:57:03;;;;;;;8.77;8.10;;;;;;;11.85;79.75;100294.13;4993636;28;20209;-65
2022/01/02 04:59:30;;;;;;;9.13;8.43;;;;;;;11.84;79.98;100303.09;4993331;28;20201;-65
2022/01/02 05:01:57;;;;;;;8.53;7.70;;;;;;;11.71;80.29;100294.13;4993517;28;20229;-65
2022/01/02 05:04:23;;;;;;;8.17;7.50;;;;;;;11.73;80.61;100303.59;4993152;28;20256;-64
2022/01/02 05:06:50;;;;;;;8.83;8.00;;;;;;;11.80;80.22;100298.34;4993231;28;20252;-64
2022/01/02 05:09:17;;;;;;;8.87;8.07;;;;;;;11.73;80.38;100303.59;4992759;28;20255;-65
2022/01/02 05:11:45;;;;;;;9.00;8.20;;;;;;;11.77;80.16;100306.69;4992800;28;20677;-64
2022/01/02 05:14:11;;;;;;;7.50;6.80;;;;;;;11.67;80.69;100300.81;4993144;28;20199;-64
2022/01/02 05:16:38;;;;;;;7.77;7.20;;;;;;;11.67;80.74;100304.28;4993080;28;20263;-65
2022/01/02 05:19:05;;;;;;;7.63;7.13;;;;;;;11.63;80.97;100302.19;4992748;28;20255;-65
2022/01/02 05:21:31;;;;;;;7.67;7.13;;;;;;;11.62;81.09;100301.38;4992650;28;20730;-65
2022/01/02 05:23:58;;;;;;;7.90;7.43;;;;;;;11.66;80.85;100302.66;4992966;28;20263;-65
2022/01/02 05:26:25;;;;;;;7.37;6.87;;;;;;;11.63;80.94;100297.69;4992432;28;20248;-65
2022/01/02 05:28:53;;;;;;;7.10;6.70;;;;;;;11.58;81.36;100300.03;4992967;28;20254;-65
2022/01/02 05:31:20;;;;;;;7.40;7.00;;;;;;;11.58;81.16;100300.03;4992217;28;20696;-66
2022/01/02 05:33:46;;;;;;;7.00;6.60;;;;;;;11.60;81.25;100298.03;4993411;28;20262;-66
2022/01/02 05:36:13;;;;;;;7.67;7.00;;;;;;;11.54;81.15;100304.06;4992891;28;20196;-66
2022/01/02 05:38:40;;;;;;;7.60;6.93;;;;;;;11.46;81.32;100296.19;4992854;28;20271;-65
2022/01/02 05:41:06;;;;;;;6.13;5.83;;;;;;;11.45;81.24;100299.84;4990378;28;20584;-66
2022/01/02 05:43:33;;;;;;;6.80;6.40;;;;;;;11.48;80.84;100299.50;4992763;28;20200;-66
2022/01/02 05:46:05;;;;;;;6.90;6.47;;;;;;;11.42;81.15;100300.22;4992466;28;20223;-66
2022/01/02 05:48:32;;;;;;;6.93;6.33;;;;;;;11.42;80.90;100299.38;4992518;28;20653;-65
2022/01/02 05:51:00;;;;;;;6.57;6.17;;;;;;;11.37;81.04;100307.06;4993182;28;20220;-65
2022/01/02 05:53:28;;;;;;;6.90;6.50;;;;;;;11.36;81.09;100306.28;4992474;28;20189;-65
2022/01/02 05:55:55;;;;;;;7.90;7.23;;;;;;;11.39;80.71;100300.56;4992693;28;20247;-65
2022/01/02 05:58:21;;;;;;;6.37;6.07;;;;;;;11.33;80.67;100305.78;4992963;28;20192;-65
2022/01/02 06:00:48;;;;;;;11.93;9.80;;;;;;;11.33;80.88;100311.09;4992212;28;20758;-65
2022/01/02 06:03:16;;;;;;;9.80;8.90;;;;;;;11.28;80.74;100318.81;4992537;28;20221;-65
2022/01/02 06:05:43;;;;;;;7.73;7.33;;;;;;;11.31;80.71;100321.13;4992292;28;20659;-65
2022/01/02 06:08:09;;;;;;;7.27;6.83;;;;;;;11.28;80.64;100324.97;4993103;28;20258;-65
2022/01/02 06:10:36;;;;;;;7.80;7.30;;;;;;;11.31;80.73;100321.13;4992425;28;20603;-65
2022/01/02 06:13:03;;;;;;;7.67;6.73;;;;;;;11.29;80.54;100323.94;4992590;28;20196;-65
2022/01/02 06:15:30;;;;;;;7.87;7.37;;;;;;;11.25;80.83;100325.31;4992202;28;20202;-65
2022/01/02 06:17:56;;;;;;;7.80;7.30;;;;;;;11.35;80.28;100328.53;4992185;28;20230;-65
2022/01/02 06:20:24;;;;;;;7.93;7.50;;;;;;;11.34;80.42;100332.22;4992200;28;20198;-65
2022/01/02 06:22:53;;;;;;;8.00;7.50;;;;;;;11.43;80.12;100333.78;4992413;28;20193;-65
2022/01/02 06:25:21;;;;;;;8.87;8.03;;;;;;;11.46;79.75;100332.59;4992346;28;20200;-66
2022/01/02 06:27:48;;;;;;;7.33;6.93;;;;;;;11.39;79.96;100337.81;4993013;28;20197;-65
2022/01/02 06:30:14;;;;;;;8.27;7.67;;;;;;;11.46;79.67;100332.59;4992192;28;20276;-65
2022/01/02 06:32:41;;;;;;;7.97;7.43;;;;;;;11.55;79.15;100332.31;4992314;28;20200;-65
2022/01/02 06:35:08;;;;;;;8.30;7.53;;;;;;;11.67;78.94;100336.22;4992096;28;20193;-65
2022/01/02 06:37:36;;;;;;;7.47;6.97;;;;;;;11.93;78.03;100349.94;4993416;28;20627;-65
2022/01/02 06:40:03;;;;;;;7.50;6.97;;;;;;;12.15;76.60;100357.00;4995443;28;20200;-66
2022/01/02 06:42:30;;;;;;;8.10;7.43;;;;;;;12.51;78.59;100346.38;4995440;28;20677;-68
2022/01/02 06:44:57;;;;;;;9.33;8.63;;;;;;;12.76;76.28;100371.66;4994926;28;20201;-69
2022/01/02 06:47:24;;;;;;;10.37;9.47;;;;;;;12.94;73.70;100378.22;4995066;28;20197;-66
2022/01/02 06:49:50;;;;;;;8.90;8.13;;;;;;;12.95;72.91;100374.53;4996117;28;20249;-68
2022/01/02 06:52:17;;;;;;;8.73;8.10;;;;;;;13.15;72.20;100383.59;4995701;28;20287;-67
2022/01/02 06:54:45;;;;;;;6.60;6.20;;;;;;;13.33;70.82;100389.31;4995002;28;20576;-67
2022/01/02 06:57:12;;;;;;;7.70;7.07;;;;;;;13.50;70.28;100388.03;4995299;28;20202;-67
2022/01/02 06:59:38;;;;;;;6.63;6.03;;;;;;;13.78;68.84;100390.69;4995183;28;20571;-69
2022/01/02 07:02:05;;;;;;;7.83;7.13;;;;;;;14.01;70.34;100384.06;4990503;28;20281;-65
2022/01/02 07:04:32;;;;;;;5.80;5.40;;;;;;;14.23;69.10;100391.03;4986309;28;20195;-66
2022/01/02 07:06:58;;;;;;;9.13;8.40;;;;;;;14.27;68.39;100381.59;4984171;28;20196;-66
2022/01/02 07:09:25;;;;;;;16.10;13.37;;;;;;;14.46;67.80;100382.72;4975661;28;20277;-65
2022/01/02 07:11:53;;;;;;;9.37;8.50;;;;;;;14.71;65.89;100392.66;4990605;28;20273;-66
2022/01/02 07:14:19;;;;;;;32.50;23.13;;;;;;;14.89;66.30;100386.75;4994852;28;20265;-64
2022/01/02 07:16:46;;;;;;;13.77;12.37;;;;;;;14.98;65.41;100386.38;4994994;28;20195;-67
2022/01/02 07:19:13;;;;;;;16.73;13.17;;;;;;;15.26;64.94;100389.72;4988144;28;20199;-66
2022/01/02 07:21:40;;;;;;;47.77;26.40;;;;;;;15.27;64.37;100396.72;4975281;28;20199;-65
2022/01/02 07:24:06;;;;;;;19.90;16.73;;;;;;;15.48;63.53;100391.19;4975021;28;20673;-66
2022/01/02 07:26:33;;;;;;;18.97;17.00;;;;;;;15.73;63.01;100397.56;4975495;28;20195;-69
2022/01/02 07:29:01;;;;;;;15.03;13.73;;;;;;;15.86;61.27;100402.91;4975132;28;20258;-68
2022/01/02 07:31:28;;;;;;;13.53;12.40;;;;;;;16.06;61.09;100407.44;4974972;28;20227;-69
2022/01/02 07:33:54;;;;;;;6.23;5.80;;;;;;;16.30;61.71;100407.59;4974859;28;20257;-65
2022/01/02 07:36:21;;;;;;;8.80;7.37;;;;;;;16.25;60.12;100406.59;4981547;28;20191;-67
2022/01/02 07:38:48;;;;;;;8.13;7.43;;;;;;;16.28;59.98;100411.50;4994306;28;20252;-65
2022/01/02 07:41:15;;;;;;;6.87;6.40;;;;;;;16.54;58.96;100411.47;4994227;28;20587;-65
2022/01/02 07:43:42;;;;;;;7.57;6.97;;;;;;;16.57;59.33;100413.75;4994401;28;20273;-65
2022/01/02 07:46:10;;;;;;;11.73;10.67;;;;;;;16.72;58.36;100415.13;4994012;28;20206;-67
2022/01/02 07:48:36;;;;;;;9.27;8.67;;;;;;;17.01;58.09;100419.09;4993722;28;20199;-66
2022/01/02 07:51:04;;;;;;;6.10;5.40;;;;;;;17.04;57.08;100426.72;4993236;28;20641;-65
2022/01/02 07:53:31;;;;;;;8.73;7.93;;;;;;;16.92;57.19;100409.63;4994091;28;20193;-64
2022/01/02 07:55:58;;;;;;;7.27;6.87;;;;;;;16.97;57.03;100413.34;4994262;28;20265;-65
2022/01/02 07:58:25;;;;;;;8.13;7.47;;;;;;;17.12;57.13;100426.47;4994359;28;20251;-66
2022/01/02 08:00:51;;;;;;;5.30;5.00;;;;;;;17.13;57.55;100420.06;4994420;28;20264;-67
2022/01/02 08:03:19;;;;;;;8.53;7.93;;;;;;;17.17;56.73;100429.31;4993636;28;20261;-66
2022/01/02 08:05:46;;;;;;;5.70;5.20;;;;;;;17.34;56.07;100433.97;4993690;28;20198;-66
2022/01/02 08:08:13;;;;;;;8.03;6.03;;;;;;;17.25;56.53;100432.59;4993619;28;20210;-65
2022/01/02 08:10:40;;;;;;;12.23;9.67;;;;;;;17.26;56.69;100433.41;4985386;28;20219;-65
2022/01/02 08:13:06;;;;;;;8.03;7.53;;;;;;;17.33;56.97;100434.19;4974117;28;20667;-66
2022/01/02 08:15:33;;;;;;;10.67;9.87;;;;;;;17.07;56.55;100429.78;4974057;28;20195;-68
2022/01/02 08:18:00;;;;;;;5.47;5.17;;;;;;;17.05;56.37;100436.41;4973975;28;20733;-65
2022/01/02 08:20:28;;;;;;;5.20;4.80;;;;;;;17.30;55.93;100440.81;4973931;28;20246;-65
2022/01/02 08:22:56;;;;;;;4.37;4.07;;;;;;;17.16;55.62;100433.06;4974672;28;20573;-66
2022/01/02 08:25:24;;;;;;;5.93;5.43;;;;;;;17.16;55.67;100438.44;4974862;28;20244;-65
2022/01/02 08:27:50;;;;;;;5.90;5.50;;;;;;;17.20;56.22;100434.28;4973797;28;20225;-70
2022/01/02 08:30:17;;;;;;;7.47;5.37;;;;;;;17.41;57.07;100437.47;4974150;28;20198;-74
2022/01/02 08:32:44;;;;;;;5.10;4.80;;;;;;;17.61;55.62;100438.16;4973617;28;20260;-72
2022/01/02 08:35:10;;;;;;;5.00;4.70;;;;;;;17.65;55.36;100443.91;4974095;28;20270;-76
2022/01/02 08:37:39;;;;;;;5.93;4.80;;;;;;;17.56;55.45;100447.91;4973988;28;20203;-70
2022/01/02 08:40:07;;;;;;;5.77;4.63;;;;;;;17.51;55.27;100443.19;4973305;28;20649;-68
2022/01/02 08:42:34;;;;;;;5.70;4.77;;;;;;;17.37;55.31;100446.13;4973937;28;20259;-69
2022/01/02 08:45:01;;;;;;;4.97;4.67;;;;;;;17.38;55.72;100431.66;4973489;28;20268;-67
2022/01/02 08:47:27;;;;;;;5.53;5.13;;;;;;;17.42;55.89;100439.13;4973632;28;20670;-68
2022/01/02 08:49:54;;;;;;;5.27;4.83;;;;;;;17.48;55.43;100437.44;4973400;28;20639;-67
2022/01/02 08:52:21;;;;;;;13.10;6.33;;;;;;;17.56;55.32;100434.47;4972777;28;20293;-69
2022/01/02 08:54:50;;;;;;;5.53;5.03;;;;;;;17.70;55.05;100446.75;4973268;28;20202;-68
2022/01/02 08:57:18;;;;;;;5.03;4.50;;;;;;;17.60;54.93;100441.06;4968904;28;20210;-70
2022/01/02 08:59:44;;;;;;;5.13;4.73;;;;;;;17.85;54.83;100444.59;4992544;28;20199;-68
2022/01/02 09:02:11;;;;;;;8.13;5.60;;;;;;;17.99;54.83;100440.72;4992582;28;20632;-66
2022/01/02 09:04:38;;;;;;;4.87;4.57;;;;;;;18.00;53.97;100445.03;4992906;28;20245;-67
2022/01/02 09:07:05;;;;;;;5.37;4.87;;;;;;;18.00;53.78;100439.66;4993038;28;20265;-67
2022/01/02 09:09:31;;;;;;;5.20;4.80;;;;;;;18.13;54.00;100439.56;4992246;28;20675;-70
2022/01/02 09:11:59;;;;;;;4.70;4.40;;;;;;;17.81;54.73;100433.41;4973824;28;20281;-69
2022/01/02 09:14:26;;;;;;;5.57;4.90;;;;;;;18.06;54.69;100425.34;4973428;28;20199;-68
2022/01/02 09:16:53;;;;;;;5.47;4.93;;;;;;;18.09;53.71;100428.41;4972462;28;20262;-67
2022/01/02 09:19:19;;;;;;;5.40;5.00;;;;;;;17.97;53.83;100422.13;4972986;28;20199;-67
2022/01/02 09:21:46;;;;;;;5.60;4.20;;;;;;;17.59;55.23;100417.91;4971779;28;20286;-70
2022/01/02 09:24:13;;;;;;;4.97;4.63;;;;;;;17.66;54.89;100413.31;4972320;28;20243;-66
2022/01/02 09:26:39;;;;;;;5.20;4.20;;;;;;;17.77;54.55;100404.53;4972511;28;20733;-68
2022/01/02 09:29:08;;;;;;;4.60;4.30;;;;;;;17.83;53.76;100393.72;4972392;28;20646;-68
2022/01/02 09:31:34;;;;;;;4.73;4.43;;;;;;;17.98;53.90;100396.06;4972876;28;20628;-64
2022/01/02 09:34:01;;;;;;;4.83;4.43;;;;;;;17.93;54.55;100385.16;4972626;28;20242;-62
2022/01/02 09:36:28;;;;;;;8.50;3.87;;;;;;;17.74;53.62;100395.06;4973022;28;20203;-62
2022/01/02 09:38:56;;;;;;;4.60;4.20;;;;;;;17.77;53.75;100386.53;4972685;28;20254;-64
2022/01/02 09:41:23;;;;;;;4.10;3.80;;;;;;;17.84;53.46;100379.22;4972543;28;20211;-65
2022/01/02 09:43:50;;;;;;;4.83;4.43;;;;;;;18.01;52.95;100390.25;4973007;28;20628;-65
2022/01/02 09:46:21;;;;;;;4.90;4.50;;;;;;;17.91;53.18;100385.38;4972351;28;20195;-67
2022/01/02 09:48:48;;;;;;;4.67;4.23;;;;;;;17.84;53.16;100386.50;4980780;28;20253;-65
2022/01/02 09:51:17;;;;;;;6.43;4.50;;;;;;;17.74;54.11;100384.31;4990829;28;20234;-66
2022/01/02 09:53:45;;;;;;;5.13;3.70;;;;;;;17.77;53.83;100383.03;4992045;28;20187;-65
2022/01/02 09:56:12;;;;;;;4.70;3.73;;;;;;;17.52;54.22;100382.22;4992065;28;20286;-66
2022/01/02 09:58:40;;;;;;;6.30;4.83;;;;;;;17.44;54.94;100382.50;4989117;28;20190;-65
2022/01/02 10:01:07;;;;;;;6.80;4.50;;;;;;;17.34;55.09;100366.00;4988497;28;20202;-64
2022/01/02 10:03:44;;;;;;;6.03;4.80;;;;;;;17.51;54.71;100367.16;4989402;28;20198;-65
2022/01/02 10:06:11;;;;;;;4.77;4.47;;;;;;;17.59;54.46;100359.63;4988637;28;20663;-65
2022/01/02 10:08:38;;;;;;;5.30;4.90;;;;;;;17.67;54.16;100337.00;4975026;28;20270;-65
2022/01/02 10:11:07;;;;;;;4.43;4.13;;;;;;;17.72;53.92;100356.00;4982600;28;20218;-66
2022/01/02 10:13:43;;;;;;;6.80;4.53;;;;;;;17.51;54.41;100351.03;4994846;28;20572;-64
2022/01/02 10:16:24;;;;;;;6.03;4.23;;;;;;;17.51;55.07;100341.09;4995352;28;20193;-65
2022/01/02 10:18:54;;;;;;;5.03;4.53;;;;;;;17.78;54.87;100338.97;4995799;28;20194;-65
2022/01/02 10:21:28;;;;;;;4.90;4.50;;;;;;;17.99;54.26;100342.06;4995737;28;20193;-65
2022/01/02 10:24:13;;;;;;;5.83;4.50;;;;;;;18.13;53.57;100332.81;4995820;28;20617;-65
2022/01/02 10:26:41;;;;;;;7.00;4.77;;;;;;;18.05;53.24;100326.91;4995532;28;20241;-65
2022/01/02 10:29:12;;;;;;;4.37;4.00;;;;;;;17.88;53.95;100323.97;4995505;28;20725;-65
2022/01/02 10:31:39;;;;;;;4.70;4.40;;;;;;;17.92;53.54;100321.69;4995566;28;20231;-65
2022/01/02 10:34:08;;;;;;;5.13;4.63;;;;;;;17.82;53.84;100319.50;4995524;28;20191;-65
2022/01/02 10:36:36;;;;;;;4.77;4.47;;;;;;;17.97;53.62;100313.78;4995732;28;20636;-65
2022/01/02 10:39:09;;;;;;;5.90;4.47;;;;;;;17.89;53.40;100311.38;4995277;28;20677;-65
2022/01/02 10:41:38;;;;;;;4.60;4.03;;;;;;;17.92;53.57;100309.06;4995259;28;20570;-65
2022/01/02 10:44:29;;;;;;;6.67;4.50;;;;;;;18.03;53.57;100307.47;4995150;28;20229;-65
2022/01/02 10:47:17;;;;;;;4.10;3.80;;;;;;;17.94;53.19;100308.84;4995072;28;20187;-66
2022/01/02 10:49:52;;;;;;;4.50;4.30;;;;;;;17.96;53.71;100294.13;4993991;28;20654;-65
2022/01/02 10:52:21;;;;;;;9.93;4.90;;;;;;;18.00;53.80;100294.47;4995599;28;20238;-66
2022/01/02 10:54:48;;;;;;;4.57;4.20;;;;;;;18.29;53.47;100291.06;4995083;28;20264;-66
2022/01/02 10:57:15;;;;;;;3.93;3.70;;;;;;;18.47;52.58;100296.44;4995234;28;20257;-66
2022/01/02 10:59:43;;;;;;;4.00;3.73;;;;;;;18.65;51.30;100297.19;4995207;28;20199;-67
2022/01/02 11:02:12;;;;;;;3.57;3.33;;;;;;;18.83;50.67;100283.66;4995155;28;20570;-66
2022/01/02 11:04:50;;;;;;;3.57;3.37;;;;;;;18.84;50.03;100288.03;4995110;28;20234;-66
2022/01/02 11:07:22;;;;;;;3.73;3.50;;;;;;;18.93;49.81;100301.97;4995297;28;20197;-66
2022/01/02 11:09:52;;;;;;;3.57;3.37;;;;;;;18.92;49.46;100292.25;4993413;28;20189;-67
2022/01/02 11:12:19;;;;;;;3.20;3.00;;;;;;;18.96;49.58;100288.03;4975261;28;20707;-67
2022/01/02 11:14:47;;;;;;;3.83;3.57;;;;;;;19.17;49.46;100279.41;4975401;28;20191;-67
2022/01/02 11:17:14;;;;;;;3.97;3.10;;;;;;;19.25;48.95;100288.03;4975626;28;20256;-66
2022/01/02 11:19:41;;;;;;;4.27;3.97;;;;;;;19.29;48.48;100282.97;4976104;28;20617;-67
2022/01/02 11:22:14;;;;;;;4.27;4.00;;;;;;;19.28;48.38;100281.34;4975301;28;20203;-66
2022/01/02 11:24:49;;;;;;;4.30;4.00;;;;;;;19.33;48.11;100278.78;4974582;28;20187;-67
2022/01/02 11:27:22;;;;;;;3.80;3.60;;;;;;;19.07;47.80;100277.28;4975237;28;20237;-66
2022/01/02 11:29:49;;;;;;;3.57;3.27;;;;;;;18.70;48.55;100275.78;4975757;28;20272;-67
2022/01/02 11:32:27;;;;;;;3.57;3.33;;;;;;;18.44;49.39;100267.28;4974771;28;20227;-66